createdAt,value
2022-09-30T00:05:07.481Z,79.40
2022-09-30T00:07:55.095Z,79.60
2022-09-30T00:10:42.503Z,79.40
2022-09-30T00:13:30.154Z,79.40
2022-09-30T00:16:18.545Z,79.80
2022-09-30T00:19:06.956Z,79.90
2022-09-30T00:21:55.946Z,79.60
2022-09-30T00:24:43.462Z,79.10
2022-09-30T00:27:51.733Z,79.60
2022-09-30T00:30:39.260Z,79.90
2022-09-30T00:33:26.670Z,79.90
2022-09-30T00:36:14.118Z,79.90
2022-09-30T00:39:02.903Z,79.90
2022-09-30T00:41:54.665Z,80.00
2022-09-30T00:45:04.418Z,80.00
2022-09-30T00:48:10.168Z,80.10
2022-09-30T00:50:57.839Z,80.00
2022-09-30T00:53:52.650Z,79.90
2022-09-30T00:56:46.287Z,80.10
2022-09-30T01:00:06.544Z,80.50
2022-09-30T01:03:11.722Z,80.40
2022-09-30T01:06:00.124Z,80.70
2022-09-30T01:08:48.013Z,80.50
2022-09-30T01:12:14.256Z,80.50
2022-09-30T01:15:09.662Z,80.90
2022-09-30T01:18:07.428Z,80.80
2022-09-30T01:21:42.399Z,80.70
2022-09-30T01:25:04.225Z,80.70
2022-09-30T01:28:25.262Z,81.10
2022-09-30T01:31:32.868Z,81.30
2022-09-30T01:35:12.628Z,81.20
2022-09-30T01:38:17.097Z,80.80
2022-09-30T01:41:09.067Z,80.50
2022-09-30T01:44:06.499Z,80.70
2022-09-30T01:47:11.806Z,80.90
2022-09-30T01:50:34.651Z,80.50
2022-09-30T01:54:20.988Z,80.40
2022-09-30T01:57:39.557Z,80.30
2022-09-30T02:00:43.669Z,80.30
2022-09-30T02:03:37.979Z,80.90
2022-09-30T02:06:29.329Z,81.10
2022-09-30T02:09:23.986Z,81.10
2022-09-30T02:12:17.685Z,81.00
2022-09-30T02:15:11.174Z,81.20
2022-09-30T02:18:03.604Z,81.20
2022-09-30T02:20:59.673Z,81.20
2022-09-30T02:23:49.072Z,81.30
2022-09-30T02:26:42.254Z,81.20
2022-09-30T02:29:33.885Z,81.00
2022-09-30T02:32:28.907Z,80.90
2022-09-30T02:35:27.564Z,81.00
2022-09-30T02:38:29.714Z,81.30
2022-09-30T02:41:41.323Z,81.50
2022-09-30T02:44:29.454Z,81.30
2022-09-30T02:47:27.624Z,81.20
2022-09-30T02:50:21.891Z,81.10
2022-09-30T02:53:24.429Z,81.60
2022-09-30T02:56:23.446Z,82.00
2022-09-30T02:59:11.483Z,81.60
2022-09-30T03:01:59.326Z,81.50
2022-09-30T03:04:50.494Z,81.50
2022-09-30T03:07:57.888Z,81.50
2022-09-30T03:11:06.802Z,81.70
2022-09-30T03:14:34.982Z,81.70
2022-09-30T03:17:42.539Z,81.90
2022-09-30T03:20:44.927Z,82.00
2022-09-30T03:23:56.487Z,82.30
2022-09-30T03:26:56.754Z,82.20
2022-09-30T03:29:55.203Z,82.30
2022-09-30T03:33:00.841Z,81.70
2022-09-30T03:35:57.834Z,81.70
2022-09-30T03:38:53.211Z,81.60
2022-09-30T03:41:45.589Z,81.30
2022-09-30T03:44:38.221Z,81.30
2022-09-30T03:47:27.918Z,81.30
2022-09-30T03:50:21.098Z,81.30
2022-09-30T03:53:12.651Z,81.50
2022-09-30T03:56:00.077Z,81.70
2022-09-30T03:58:48.713Z,81.80
2022-09-30T04:01:44.533Z,81.90
2022-09-30T04:04:38.816Z,82.00
2022-09-30T04:07:49.594Z,81.90
2022-09-30T04:11:01.549Z,81.90
2022-09-30T04:13:56.394Z,82.10
2022-09-30T04:16:44.067Z,82.20
2022-09-30T04:19:32.226Z,82.10
2022-09-30T04:22:22.167Z,82.30
2022-09-30T04:25:13.366Z,82.40
2022-09-30T04:28:00.962Z,82.40
2022-09-30T04:30:49.625Z,82.40
2022-09-30T04:33:46.457Z,82.70
2022-09-30T04:36:33.937Z,83.00
2022-09-30T04:39:21.216Z,82.70
2022-09-30T04:42:08.593Z,82.70
2022-09-30T04:44:58.004Z,82.50
2022-09-30T04:47:46.628Z,82.50
2022-09-30T04:50:35.656Z,82.70
2022-09-30T04:53:22.974Z,82.40
2022-09-30T04:56:10.750Z,82.20
2022-09-30T04:58:58.109Z,82.10
2022-09-30T05:02:03.440Z,82.00
2022-09-30T05:08:45.377Z,82.10
2022-09-30T05:11:34.041Z,82.00
2022-09-30T05:14:21.938Z,82.10
2022-09-30T05:17:09.162Z,82.00
2022-09-30T05:19:56.396Z,82.50
2022-09-30T05:22:45.245Z,81.60
2022-09-30T05:25:32.855Z,81.90
2022-09-30T05:28:20.767Z,81.70
2022-09-30T05:31:08.478Z,81.50
2022-09-30T05:33:58.278Z,81.40
2022-09-30T05:36:45.907Z,81.50
2022-09-30T05:39:34.578Z,81.70
2022-09-30T05:42:21.965Z,81.50
2022-09-30T05:45:10.017Z,81.30
2022-09-30T05:47:57.936Z,81.50
2022-09-30T05:50:51.709Z,81.30
2022-09-30T05:53:41.273Z,81.20
2022-09-30T05:56:30.171Z,81.30
2022-09-30T05:59:17.713Z,81.00
2022-09-30T06:02:05.960Z,81.00
2022-09-30T06:04:35.027Z,81.30
2022-09-30T06:07:07.050Z,81.60
2022-09-30T06:09:40.488Z,81.90
2022-09-30T06:12:36.203Z,81.90
2022-09-30T06:15:23.457Z,82.20
2022-09-30T06:17:54.537Z,82.50
2022-09-30T06:20:23.777Z,82.20
2022-09-30T06:22:52.868Z,82.00
2022-09-30T06:25:22.355Z,81.60
2022-09-30T06:27:52.758Z,81.60
2022-09-30T06:30:21.914Z,81.90
2022-09-30T06:32:51.577Z,82.30
2022-09-30T06:35:21.795Z,82.20
2022-09-30T06:37:52.877Z,82.40
2022-09-30T06:40:22.429Z,82.50
2022-09-30T06:42:52.858Z,82.50
2022-09-30T06:45:30.908Z,82.20
2022-09-30T06:48:02.557Z,82.30
2022-09-30T06:50:32.737Z,82.40
2022-09-30T06:53:06.258Z,82.50
2022-09-30T06:55:39.247Z,82.70
2022-09-30T06:58:16.722Z,82.70
2022-09-30T07:00:45.814Z,82.70
2022-09-30T07:03:26.586Z,82.60
2022-09-30T07:06:00.138Z,82.90
2022-09-30T07:08:31.780Z,82.80
2022-09-30T07:11:01.567Z,82.90
2022-09-30T07:13:33.109Z,83.10
2022-09-30T07:16:03.346Z,82.90
2022-09-30T07:18:32.745Z,82.90
2022-09-30T07:21:01.802Z,83.10
2022-09-30T07:23:32.103Z,83.20
2022-09-30T07:26:04.735Z,83.10
2022-09-30T07:28:39.468Z,83.30
2022-09-30T07:31:32.024Z,83.30
2022-09-30T07:34:01.029Z,83.50
2022-09-30T07:36:33.416Z,83.30
2022-09-30T07:39:06.818Z,83.50
2022-09-30T07:41:39.776Z,83.50
2022-09-30T07:44:14.739Z,83.60
2022-09-30T07:46:45.839Z,83.50
2022-09-30T07:49:25.421Z,83.70
2022-09-30T07:51:56.818Z,83.60
2022-09-30T07:54:30.352Z,83.70
2022-09-30T07:57:15.953Z,83.90
2022-09-30T07:59:46.407Z,84.60
2022-09-30T08:02:18.845Z,83.90
2022-09-30T08:04:48.318Z,84.30
2022-09-30T08:07:19.527Z,84.10
2022-09-30T08:09:49.314Z,83.70
2022-09-30T08:12:18.361Z,83.50
2022-09-30T08:14:48.734Z,84.30
2022-09-30T08:17:17.712Z,83.60
2022-09-30T08:19:46.778Z,83.50
2022-09-30T08:22:16.557Z,83.50
2022-09-30T08:24:45.597Z,83.30
2022-09-30T08:27:14.637Z,83.50
2022-09-30T08:29:54.868Z,83.30
2022-09-30T08:32:26.485Z,83.30
2022-09-30T08:34:55.564Z,83.10
2022-09-30T08:37:24.894Z,82.80
2022-09-30T08:39:54.004Z,82.80
2022-09-30T08:42:45.754Z,82.70
2022-09-30T08:45:32.704Z,81.60
2022-09-30T08:51:03.642Z,81.50
2022-09-30T08:53:37.632Z,81.40
2022-09-30T08:56:08.477Z,81.50
2022-09-30T08:58:41.838Z,81.50
2022-09-30T09:01:20.938Z,81.30
2022-09-30T09:03:51.448Z,81.10
2022-09-30T09:06:29.113Z,81.10
2022-09-30T09:09:23.209Z,80.30
2022-09-30T09:12:10.833Z,79.00
2022-09-30T09:14:58.003Z,79.40
2022-09-30T09:17:40.389Z,80.40
2022-09-30T09:20:16.629Z,79.60
2022-09-30T09:22:48.251Z,80.00
2022-09-30T09:25:20.402Z,80.10
2022-09-30T09:27:56.517Z,79.40
2022-09-30T09:30:28.564Z,79.30
2022-09-30T09:33:02.256Z,79.10
2022-09-30T09:35:42.197Z,78.70
2022-09-30T09:38:27.092Z,78.50
2022-09-30T09:41:19.840Z,78.20
2022-09-30T09:44:00.418Z,78.30
2022-09-30T09:46:33.987Z,78.90
2022-09-30T09:49:33.930Z,77.70
2022-09-30T09:52:43.824Z,78.30
2022-09-30T09:55:14.634Z,76.70
2022-09-30T09:57:43.795Z,78.10
2022-09-30T10:00:56.436Z,77.60
2022-09-30T10:03:28.822Z,77.70
2022-09-30T10:06:04.995Z,77.80
2022-09-30T10:08:38.715Z,77.20
2022-09-30T10:11:18.697Z,76.80
2022-09-30T10:13:48.553Z,76.70
2022-09-30T10:16:32.121Z,76.00
2022-09-30T10:19:03.976Z,74.50
2022-09-30T10:21:36.346Z,75.00
2022-09-30T10:24:29.204Z,75.00
2022-09-30T10:26:58.420Z,74.40
2022-09-30T10:29:31.920Z,75.40
2022-09-30T10:32:03.034Z,74.40
2022-09-30T10:34:35.168Z,74.50
2022-09-30T10:37:12.048Z,74.70
2022-09-30T10:39:45.148Z,74.30
2022-09-30T10:42:25.970Z,74.10
2022-09-30T10:44:59.228Z,73.00
2022-09-30T10:47:31.305Z,74.20
2022-09-30T10:50:08.872Z,74.10
2022-09-30T10:52:44.720Z,73.90
2022-09-30T10:55:30.366Z,73.40
2022-09-30T10:58:22.945Z,72.90
2022-09-30T11:00:59.970Z,73.30
2022-09-30T11:03:37.912Z,73.10
2022-09-30T11:06:08.554Z,72.40
2022-09-30T11:08:46.613Z,72.10
2022-09-30T11:11:22.469Z,71.60
2022-09-30T11:13:57.772Z,70.90
2022-09-30T11:16:35.771Z,70.90
2022-09-30T11:19:12.731Z,71.40
2022-09-30T11:21:46.486Z,71.90
2022-09-30T11:24:29.751Z,71.90
2022-09-30T11:27:09.235Z,70.70
2022-09-30T11:29:55.715Z,70.70
2022-09-30T11:32:42.022Z,71.10
2022-09-30T11:35:42.003Z,70.90
2022-09-30T11:38:23.189Z,70.30
2022-09-30T11:41:02.468Z,70.80
2022-09-30T11:43:45.174Z,70.20
2022-09-30T11:46:30.545Z,70.50
2022-09-30T11:49:40.684Z,69.70
2022-09-30T11:52:17.981Z,70.10
2022-09-30T11:55:23.627Z,70.70
2022-09-30T11:58:12.062Z,70.60
2022-09-30T12:00:59.690Z,70.10
2022-09-30T12:03:35.715Z,70.40
2022-09-30T12:06:12.144Z,70.90
2022-09-30T12:08:48.193Z,70.20
2022-09-30T12:11:23.849Z,70.00
2022-09-30T12:13:56.729Z,69.60
2022-09-30T12:16:30.839Z,69.60
2022-09-30T12:19:15.243Z,69.30
2022-09-30T12:21:53.257Z,69.00
2022-09-30T12:24:30.862Z,68.80
2022-09-30T12:27:02.025Z,68.90
2022-09-30T12:29:55.514Z,69.40
2022-09-30T12:33:03.592Z,67.70
2022-09-30T12:35:55.223Z,66.60
2022-09-30T12:38:52.245Z,66.50
2022-09-30T12:41:36.490Z,67.40
2022-09-30T12:44:47.150Z,67.40
2022-09-30T12:47:32.798Z,67.30
2022-09-30T12:50:08.163Z,67.00
2022-09-30T12:52:38.519Z,67.00
2022-09-30T12:55:19.948Z,67.60
2022-09-30T12:57:51.373Z,67.20
2022-09-30T13:00:23.107Z,67.50
2022-09-30T13:03:00.245Z,66.80
2022-09-30T13:05:56.262Z,67.60
2022-09-30T13:08:45.422Z,67.40
2022-09-30T13:11:37.447Z,67.50
2022-09-30T13:14:34.421Z,67.50
2022-09-30T13:17:29.353Z,66.90
2022-09-30T13:19:59.745Z,67.60
2022-09-30T13:22:59.808Z,67.40
2022-09-30T13:25:55.165Z,67.50
2022-09-30T13:28:39.271Z,68.00
2022-09-30T13:31:19.146Z,68.00
2022-09-30T13:34:09.184Z,67.50
2022-09-30T13:36:58.947Z,67.20
2022-09-30T13:39:31.672Z,68.10
2022-09-30T13:42:13.467Z,68.30
2022-09-30T13:45:01.125Z,68.10
2022-09-30T13:47:35.399Z,67.90
2022-09-30T13:50:16.121Z,68.80
2022-09-30T13:52:52.119Z,68.60
2022-09-30T13:55:26.649Z,68.50
2022-09-30T13:58:08.468Z,67.80
2022-09-30T14:00:55.427Z,66.90
2022-09-30T14:03:45.723Z,66.20
2022-09-30T14:06:23.935Z,66.80
2022-09-30T14:09:38.958Z,66.30
2022-09-30T14:12:29.195Z,66.30
2022-09-30T14:15:32.521Z,67.10
2022-09-30T14:18:46.463Z,66.30
2022-09-30T14:21:34.090Z,66.70
2022-09-30T14:24:11.838Z,66.30
2022-09-30T14:27:15.867Z,67.10
2022-09-30T14:29:57.090Z,67.10
2022-09-30T14:32:31.466Z,67.40
2022-09-30T14:35:08.323Z,67.50
2022-09-30T14:37:42.618Z,68.10
2022-09-30T14:40:19.417Z,68.10
2022-09-30T14:42:50.111Z,67.90
2022-09-30T14:45:26.915Z,68.20
2022-09-30T14:48:00.060Z,68.20
2022-09-30T14:50:32.349Z,68.30
2022-09-30T14:53:03.614Z,68.70
2022-09-30T14:55:39.204Z,68.60
2022-09-30T14:58:28.584Z,68.70
2022-09-30T15:01:08.559Z,68.90
2022-09-30T15:03:42.730Z,68.80
2022-09-30T15:06:20.442Z,68.60
2022-09-30T15:08:50.887Z,68.30
2022-09-30T15:11:26.075Z,68.70
2022-09-30T15:14:01.173Z,68.60
2022-09-30T15:16:32.564Z,68.80
2022-09-30T15:19:02.537Z,69.10
2022-09-30T15:21:33.390Z,69.20
2022-09-30T15:24:03.036Z,69.40
2022-09-30T15:26:35.106Z,69.00
2022-09-30T15:29:07.907Z,69.50
2022-09-30T15:31:44.367Z,69.80
2022-09-30T15:34:21.743Z,69.40
2022-09-30T15:37:04.400Z,69.20
2022-09-30T15:39:54.171Z,68.40
2022-09-30T15:42:38.118Z,68.50
2022-09-30T15:45:35.096Z,68.20
2022-09-30T15:48:08.225Z,69.00
2022-09-30T15:50:39.995Z,69.20
2022-09-30T15:53:22.838Z,69.50
2022-09-30T15:55:55.857Z,69.30
2022-09-30T15:58:39.130Z,69.40
2022-09-30T16:01:17.734Z,68.50
2022-09-30T16:03:55.492Z,68.60
2022-09-30T16:06:32.861Z,68.60
2022-09-30T16:09:06.731Z,68.90
2022-09-30T16:11:41.966Z,68.30
2022-09-30T16:14:21.250Z,68.40
2022-09-30T16:16:56.900Z,68.60
2022-09-30T16:19:27.182Z,68.20
2022-09-30T16:22:00.797Z,68.00
2022-09-30T16:24:50.047Z,68.40
2022-09-30T16:27:30.475Z,69.30
2022-09-30T16:30:02.390Z,69.10
2022-09-30T16:32:37.539Z,68.50
2022-09-30T16:35:08.921Z,69.40
2022-09-30T16:37:43.053Z,69.60
2022-09-30T16:40:24.570Z,68.40
2022-09-30T16:42:55.958Z,69.80
2022-09-30T16:45:28.984Z,68.10
2022-09-30T16:48:01.574Z,69.00
2022-09-30T16:50:38.266Z,68.80
2022-09-30T16:53:09.865Z,69.60
2022-09-30T16:55:40.474Z,68.30
2022-09-30T16:58:14.072Z,69.00
2022-09-30T17:00:46.573Z,69.00
2022-09-30T17:03:18.477Z,68.90
2022-09-30T17:05:53.301Z,69.40
2022-09-30T17:08:25.103Z,69.40
2022-09-30T17:10:54.851Z,69.60
2022-09-30T17:13:24.564Z,68.80
2022-09-30T17:15:56.227Z,68.80
2022-09-30T17:18:26.016Z,68.80
2022-09-30T17:20:55.956Z,68.30
2022-09-30T17:23:27.082Z,69.60
2022-09-30T17:25:56.118Z,70.10
2022-09-30T17:28:25.878Z,70.40
2022-09-30T17:30:56.293Z,70.50
2022-09-30T17:33:25.257Z,70.20
2022-09-30T17:36:02.255Z,70.00
2022-09-30T17:38:31.950Z,70.20
2022-09-30T17:41:19.170Z,70.10
2022-09-30T17:43:48.301Z,70.30
2022-09-30T17:46:23.319Z,70.40
2022-09-30T17:48:57.462Z,70.60
2022-09-30T17:51:26.546Z,70.90
2022-09-30T17:53:56.990Z,70.60
2022-09-30T17:56:26.018Z,70.70
2022-09-30T17:58:55.024Z,70.90
2022-09-30T18:01:25.599Z,71.10
2022-09-30T18:03:59.347Z,71.00
2022-09-30T18:06:30.150Z,71.20
2022-09-30T18:09:00.408Z,71.10
2022-09-30T18:11:31.762Z,71.10
2022-09-30T18:14:02.034Z,71.00
2022-09-30T18:16:34.156Z,71.10
2022-09-30T18:19:21.315Z,71.50
2022-09-30T18:23:04.857Z,71.30
2022-09-30T18:44:38.601Z,71.00
2022-09-30T18:48:28.374Z,71.10
2022-09-30T19:07:14.613Z,71.80
2022-09-30T19:11:34.865Z,71.90
2022-09-30T19:15:27.967Z,71.70
2022-09-30T19:28:11.330Z,72.10
2022-09-30T19:39:12.372Z,72.00
2022-09-30T19:42:57.489Z,72.30
2022-09-30T19:49:07.567Z,72.80
2022-09-30T19:53:41.545Z,72.90
2022-09-30T19:56:30.952Z,72.60
2022-09-30T19:59:03.972Z,72.20
2022-09-30T20:01:41.923Z,71.80
2022-09-30T20:04:51.431Z,72.30
2022-09-30T20:39:17.471Z,72.70
2022-09-30T20:57:47.299Z,73.60
2022-09-30T21:06:10.491Z,74.20
2022-09-30T21:09:15.356Z,75.60
2022-09-30T21:12:15.343Z,74.70
2022-09-30T21:23:30.753Z,74.40
2022-09-30T21:26:19.253Z,74.70
2022-09-30T21:29:06.775Z,74.70
2022-09-30T21:31:54.331Z,74.70
2022-09-30T21:34:41.719Z,74.50
2022-09-30T21:40:40.274Z,74.60
2022-09-30T21:43:55.218Z,74.30
2022-09-30T21:46:56.604Z,74.10
2022-09-30T21:49:48.284Z,73.80
2022-09-30T22:20:38.141Z,73.90
2022-09-30T22:37:43.365Z,74.20
2022-09-30T22:40:40.272Z,73.90
2022-09-30T22:48:21.434Z,74.20
2022-09-30T22:52:25.521Z,73.50
2022-09-30T22:55:17.189Z,73.70
2022-09-30T22:58:32.607Z,73.30
2022-09-30T23:11:04.304Z,73.80
2022-09-30T23:15:30.536Z,74.10
2022-09-30T23:18:31.771Z,73.40
2022-09-30T23:22:17.992Z,73.60
2022-09-30T23:26:06.748Z,73.70
2022-09-30T23:30:12.302Z,73.40
2022-09-30T23:34:26.420Z,74.10
2022-09-30T23:37:16.182Z,73.40
2022-09-30T23:40:04.237Z,73.60
2022-09-30T23:43:20.632Z,73.70
2022-09-30T23:47:16.107Z,74.60
2022-09-30T23:50:07.163Z,74.40
2022-09-30T23:58:05.954Z,74.90
